sensor_id;sensor_type;location;lat;lon;timestamp;P1;durP1;ratioP1;P2;durP2;ratioP2
3280;SDS011;1652;51.318;6.202;2023-08-20T00:01:19;13.27;;;10.87;;
3280;SDS011;1652;51.318;6.202;2023-08-20T00:03:52;17.03;;;11.60;;
3280;SDS011;1652;51.318;6.202;2023-08-20T00:06:20;15.40;;;11.10;;
3280;SDS011;1652;51.318;6.202;2023-08-20T00:08:47;17.70;;;12.40;;
3280;SDS011;1652;51.318;6.202;2023-08-20T00:11:15;15.07;;;11.90;;
3280;SDS011;1652;51.318;6.202;2023-08-20T00:13:42;18.73;;;12.70;;
3280;SDS011;1652;51.318;6.202;2023-08-20T00:16:10;14.33;;;12.43;;
3280;SDS011;1652;51.318;6.202;2023-08-20T00:18:38;16.07;;;10.77;;
3280;SDS011;1652;51.318;6.202;2023-08-20T00:21:05;13.47;;;10.30;;
3280;SDS011;1652;51.318;6.202;2023-08-20T00:23:33;12.37;;;10.00;;
3280;SDS011;1652;51.318;6.202;2023-08-20T00:26:01;10.93;;;9.80;;
3280;SDS011;1652;51.318;6.202;2023-08-20T00:28:29;14.20;;;12.40;;
3280;SDS011;1652;51.318;6.202;2023-08-20T00:30:56;22.37;;;14.07;;
3280;SDS011;1652;51.318;6.202;2023-08-20T00:33:23;34.23;;;15.13;;
3280;SDS011;1652;51.318;6.202;2023-08-20T00:35:50;29.63;;;18.40;;
3280;SDS011;1652;51.318;6.202;2023-08-20T00:38:17;33.47;;;23.17;;
3280;SDS011;1652;51.318;6.202;2023-08-20T00:40:44;28.67;;;19.33;;
3280;SDS011;1652;51.318;6.202;2023-08-20T00:43:11;23.67;;;17.43;;
3280;SDS011;1652;51.318;6.202;2023-08-20T00:45:39;24.37;;;17.67;;
3280;SDS011;1652;51.318;6.202;2023-08-20T00:48:07;23.10;;;15.90;;
3280;SDS011;1652;51.318;6.202;2023-08-20T00:50:35;24.87;;;16.90;;
3280;SDS011;1652;51.318;6.202;2023-08-20T00:53:02;28.23;;;15.80;;
3280;SDS011;1652;51.318;6.202;2023-08-20T00:55:29;21.20;;;14.60;;
3280;SDS011;1652;51.318;6.202;2023-08-20T00:57:56;20.57;;;13.87;;
3280;SDS011;1652;51.318;6.202;2023-08-20T01:00:23;23.73;;;14.70;;
3280;SDS011;1652;51.318;6.202;2023-08-20T01:02:50;29.80;;;14.50;;
3280;SDS011;1652;51.318;6.202;2023-08-20T01:05:18;14.00;;;12.50;;
3280;SDS011;1652;51.318;6.202;2023-08-20T01:07:58;25.97;;;14.37;;
3280;SDS011;1652;51.318;6.202;2023-08-20T01:13:30;17.63;;;13.53;;
3280;SDS011;1652;51.318;6.202;2023-08-20T01:15:57;14.47;;;12.80;;
3280;SDS011;1652;51.318;6.202;2023-08-20T01:24:10;15.37;;;12.77;;
3280;SDS011;1652;51.318;6.202;2023-08-20T01:27:10;16.27;;;13.27;;
3280;SDS011;1652;51.318;6.202;2023-08-20T01:30:02;25.53;;;13.60;;
3280;SDS011;1652;51.318;6.202;2023-08-20T01:32:29;28.90;;;14.10;;
3280;SDS011;1652;51.318;6.202;2023-08-20T01:34:57;20.53;;;13.03;;
3280;SDS011;1652;51.318;6.202;2023-08-20T01:37:24;18.70;;;14.40;;
3280;SDS011;1652;51.318;6.202;2023-08-20T01:39:51;21.73;;;15.87;;
3280;SDS011;1652;51.318;6.202;2023-08-20T01:42:17;27.17;;;15.70;;
3280;SDS011;1652;51.318;6.202;2023-08-20T01:44:44;30.70;;;18.90;;
3280;SDS011;1652;51.318;6.202;2023-08-20T01:47:11;23.67;;;16.73;;
3280;SDS011;1652;51.318;6.202;2023-08-20T01:49:38;24.23;;;16.33;;
3280;SDS011;1652;51.318;6.202;2023-08-20T01:52:05;21.57;;;14.10;;
3280;SDS011;1652;51.318;6.202;2023-08-20T01:54:32;26.10;;;15.00;;
3280;SDS011;1652;51.318;6.202;2023-08-20T01:56:59;20.07;;;14.57;;
3280;SDS011;1652;51.318;6.202;2023-08-20T01:59:26;17.40;;;14.13;;
3280;SDS011;1652;51.318;6.202;2023-08-20T02:01:53;17.87;;;14.13;;
3280;SDS011;1652;51.318;6.202;2023-08-20T02:04:19;20.20;;;13.90;;
3280;SDS011;1652;51.318;6.202;2023-08-20T02:06:46;17.33;;;12.43;;
3280;SDS011;1652;51.318;6.202;2023-08-20T02:09:13;17.40;;;12.20;;
3280;SDS011;1652;51.318;6.202;2023-08-20T02:11:40;18.47;;;12.80;;
3280;SDS011;1652;51.318;6.202;2023-08-20T02:14:07;14.30;;;13.00;;
3280;SDS011;1652;51.318;6.202;2023-08-20T02:19:06;15.60;;;12.47;;
3280;SDS011;1652;51.318;6.202;2023-08-20T02:21:33;17.20;;;12.70;;
3280;SDS011;1652;51.318;6.202;2023-08-20T02:24:01;22.43;;;13.17;;
3280;SDS011;1652;51.318;6.202;2023-08-20T02:26:28;15.57;;;12.87;;
3280;SDS011;1652;51.318;6.202;2023-08-20T02:28:55;17.20;;;12.93;;
3280;SDS011;1652;51.318;6.202;2023-08-20T02:31:23;22.43;;;12.47;;
3280;SDS011;1652;51.318;6.202;2023-08-20T02:33:50;16.93;;;13.00;;
3280;SDS011;1652;51.318;6.202;2023-08-20T02:36:17;18.67;;;13.87;;
3280;SDS011;1652;51.318;6.202;2023-08-20T02:38:44;28.30;;;13.50;;
3280;SDS011;1652;51.318;6.202;2023-08-20T02:41:11;18.90;;;13.37;;
3280;SDS011;1652;51.318;6.202;2023-08-20T02:43:39;37.23;;;15.50;;
3280;SDS011;1652;51.318;6.202;2023-08-20T02:46:06;21.90;;;13.80;;
3280;SDS011;1652;51.318;6.202;2023-08-20T02:48:33;26.53;;;15.03;;
3280;SDS011;1652;51.318;6.202;2023-08-20T02:51:00;39.03;;;20.70;;
3280;SDS011;1652;51.318;6.202;2023-08-20T02:53:27;80.63;;;51.57;;
3280;SDS011;1652;51.318;6.202;2023-08-20T02:55:54;76.07;;;48.33;;
3280;SDS011;1652;51.318;6.202;2023-08-20T02:58:21;34.40;;;23.67;;
3280;SDS011;1652;51.318;6.202;2023-08-20T03:00:48;31.13;;;17.30;;
3280;SDS011;1652;51.318;6.202;2023-08-20T03:03:15;17.40;;;14.90;;
3280;SDS011;1652;51.318;6.202;2023-08-20T03:05:42;21.03;;;15.00;;
3280;SDS011;1652;51.318;6.202;2023-08-20T03:08:09;28.47;;;16.47;;
3280;SDS011;1652;51.318;6.202;2023-08-20T03:10:36;26.37;;;15.80;;
3280;SDS011;1652;51.318;6.202;2023-08-20T03:13:03;93.77;;;55.93;;
3280;SDS011;1652;51.318;6.202;2023-08-20T03:15:30;95.97;;;60.03;;
3280;SDS011;1652;51.318;6.202;2023-08-20T03:17:57;147.47;;;88.90;;
3280;SDS011;1652;51.318;6.202;2023-08-20T03:20:24;145.87;;;94.47;;
3280;SDS011;1652;51.318;6.202;2023-08-20T03:22:51;114.83;;;70.50;;
3280;SDS011;1652;51.318;6.202;2023-08-20T03:25:18;108.33;;;64.40;;
3280;SDS011;1652;51.318;6.202;2023-08-20T03:27:45;71.90;;;46.83;;
3280;SDS011;1652;51.318;6.202;2023-08-20T03:30:12;137.93;;;88.23;;
3280;SDS011;1652;51.318;6.202;2023-08-20T03:32:39;137.73;;;89.97;;
3280;SDS011;1652;51.318;6.202;2023-08-20T03:35:06;114.17;;;69.30;;
3280;SDS011;1652;51.318;6.202;2023-08-20T03:37:33;87.37;;;51.20;;
3280;SDS011;1652;51.318;6.202;2023-08-20T03:40:00;56.87;;;37.37;;
3280;SDS011;1652;51.318;6.202;2023-08-20T03:42:31;47.73;;;33.93;;
3280;SDS011;1652;51.318;6.202;2023-08-20T03:44:58;56.43;;;37.37;;
3280;SDS011;1652;51.318;6.202;2023-08-20T03:47:25;91.33;;;55.07;;
3280;SDS011;1652;51.318;6.202;2023-08-20T03:49:51;121.07;;;77.83;;
3280;SDS011;1652;51.318;6.202;2023-08-20T03:52:18;123.97;;;74.00;;
3280;SDS011;1652;51.318;6.202;2023-08-20T03:54:45;177.53;;;107.20;;
3280;SDS011;1652;51.318;6.202;2023-08-20T03:57:12;160.33;;;101.17;;
3280;SDS011;1652;51.318;6.202;2023-08-20T03:59:39;128.30;;;81.03;;
3280;SDS011;1652;51.318;6.202;2023-08-20T04:02:06;137.70;;;85.77;;
3280;SDS011;1652;51.318;6.202;2023-08-20T04:04:33;66.10;;;43.30;;
3280;SDS011;1652;51.318;6.202;2023-08-20T04:07:00;63.67;;;44.80;;
3280;SDS011;1652;51.318;6.202;2023-08-20T04:09:27;92.37;;;54.00;;
3280;SDS011;1652;51.318;6.202;2023-08-20T04:11:54;91.43;;;53.27;;
3280;SDS011;1652;51.318;6.202;2023-08-20T04:14:21;92.40;;;55.80;;
3280;SDS011;1652;51.318;6.202;2023-08-20T04:19:19;58.47;;;37.13;;
3280;SDS011;1652;51.318;6.202;2023-08-20T04:21:46;72.40;;;45.83;;
3280;SDS011;1652;51.318;6.202;2023-08-20T04:24:13;63.77;;;42.33;;
3280;SDS011;1652;51.318;6.202;2023-08-20T04:26:40;58.77;;;38.50;;
3280;SDS011;1652;51.318;6.202;2023-08-20T04:29:07;51.00;;;35.40;;
3280;SDS011;1652;51.318;6.202;2023-08-20T04:31:34;49.70;;;32.83;;
3280;SDS011;1652;51.318;6.202;2023-08-20T04:34:01;48.87;;;29.60;;
3280;SDS011;1652;51.318;6.202;2023-08-20T04:36:28;38.27;;;27.33;;
3280;SDS011;1652;51.318;6.202;2023-08-20T04:38:55;42.03;;;30.30;;
3280;SDS011;1652;51.318;6.202;2023-08-20T04:41:22;42.57;;;26.63;;
3280;SDS011;1652;51.318;6.202;2023-08-20T04:43:49;41.60;;;25.33;;
3280;SDS011;1652;51.318;6.202;2023-08-20T04:46:16;39.33;;;24.70;;
3280;SDS011;1652;51.318;6.202;2023-08-20T04:48:43;36.33;;;25.20;;
3280;SDS011;1652;51.318;6.202;2023-08-20T04:51:10;40.00;;;24.63;;
3280;SDS011;1652;51.318;6.202;2023-08-20T04:53:37;35.80;;;24.30;;
3280;SDS011;1652;51.318;6.202;2023-08-20T04:56:04;32.10;;;22.90;;
3280;SDS011;1652;51.318;6.202;2023-08-20T04:58:30;35.80;;;22.40;;
3280;SDS011;1652;51.318;6.202;2023-08-20T05:00:57;31.97;;;21.83;;
3280;SDS011;1652;51.318;6.202;2023-08-20T05:03:25;30.57;;;20.77;;
3280;SDS011;1652;51.318;6.202;2023-08-20T05:05:52;29.23;;;19.43;;
3280;SDS011;1652;51.318;6.202;2023-08-20T05:08:19;32.03;;;20.93;;
3280;SDS011;1652;51.318;6.202;2023-08-20T05:10:46;38.50;;;24.80;;
3280;SDS011;1652;51.318;6.202;2023-08-20T05:13:13;33.77;;;22.17;;
3280;SDS011;1652;51.318;6.202;2023-08-20T05:15:40;31.67;;;22.30;;
3280;SDS011;1652;51.318;6.202;2023-08-20T05:18:06;40.70;;;22.73;;
3280;SDS011;1652;51.318;6.202;2023-08-20T05:20:33;38.60;;;27.60;;
3280;SDS011;1652;51.318;6.202;2023-08-20T05:23:00;34.13;;;25.97;;
3280;SDS011;1652;51.318;6.202;2023-08-20T05:25:27;42.40;;;28.60;;
3280;SDS011;1652;51.318;6.202;2023-08-20T05:27:54;40.80;;;28.80;;
3280;SDS011;1652;51.318;6.202;2023-08-20T05:30:21;45.63;;;31.80;;
3280;SDS011;1652;51.318;6.202;2023-08-20T05:32:48;39.17;;;31.67;;
3280;SDS011;1652;51.318;6.202;2023-08-20T05:35:15;40.27;;;30.30;;
3280;SDS011;1652;51.318;6.202;2023-08-20T05:37:42;34.90;;;26.47;;
3280;SDS011;1652;51.318;6.202;2023-08-20T05:40:09;41.87;;;27.70;;
3280;SDS011;1652;51.318;6.202;2023-08-20T05:42:36;36.30;;;24.63;;
3280;SDS011;1652;51.318;6.202;2023-08-20T05:45:03;37.43;;;23.43;;
3280;SDS011;1652;51.318;6.202;2023-08-20T05:47:31;29.00;;;22.10;;
3280;SDS011;1652;51.318;6.202;2023-08-20T05:49:58;27.27;;;19.93;;
3280;SDS011;1652;51.318;6.202;2023-08-20T05:52:25;23.03;;;17.70;;
3280;SDS011;1652;51.318;6.202;2023-08-20T05:54:51;24.90;;;15.50;;
3280;SDS011;1652;51.318;6.202;2023-08-20T05:57:18;19.57;;;15.60;;
3280;SDS011;1652;51.318;6.202;2023-08-20T05:59:45;23.23;;;15.43;;
3280;SDS011;1652;51.318;6.202;2023-08-20T06:02:16;18.20;;;14.50;;
3280;SDS011;1652;51.318;6.202;2023-08-20T06:04:46;16.90;;;12.73;;
3280;SDS011;1652;51.318;6.202;2023-08-20T06:07:13;12.90;;;11.60;;
3280;SDS011;1652;51.318;6.202;2023-08-20T06:09:40;15.40;;;11.90;;
3280;SDS011;1652;51.318;6.202;2023-08-20T06:12:07;13.90;;;12.37;;
3280;SDS011;1652;51.318;6.202;2023-08-20T06:14:34;14.67;;;12.03;;
3280;SDS011;1652;51.318;6.202;2023-08-20T06:17:01;14.10;;;12.80;;
3280;SDS011;1652;51.318;6.202;2023-08-20T06:19:28;18.00;;;11.63;;
3280;SDS011;1652;51.318;6.202;2023-08-20T06:21:55;17.33;;;13.83;;
3280;SDS011;1652;51.318;6.202;2023-08-20T06:24:22;17.90;;;13.90;;
3280;SDS011;1652;51.318;6.202;2023-08-20T06:26:49;22.37;;;13.13;;
3280;SDS011;1652;51.318;6.202;2023-08-20T06:29:17;17.80;;;11.97;;
3280;SDS011;1652;51.318;6.202;2023-08-20T06:31:44;12.27;;;10.53;;
3280;SDS011;1652;51.318;6.202;2023-08-20T06:34:11;16.07;;;10.60;;
3280;SDS011;1652;51.318;6.202;2023-08-20T06:36:38;11.47;;;9.23;;
3280;SDS011;1652;51.318;6.202;2023-08-20T06:39:05;9.90;;;8.90;;
3280;SDS011;1652;51.318;6.202;2023-08-20T06:41:33;14.83;;;9.47;;
3280;SDS011;1652;51.318;6.202;2023-08-20T06:44:00;10.93;;;9.80;;
3280;SDS011;1652;51.318;6.202;2023-08-20T06:46:28;13.47;;;8.87;;
3280;SDS011;1652;51.318;6.202;2023-08-20T06:48:55;11.60;;;8.20;;
3280;SDS011;1652;51.318;6.202;2023-08-20T06:51:22;7.50;;;6.80;;
3280;SDS011;1652;51.318;6.202;2023-08-20T06:53:49;10.20;;;7.10;;
3280;SDS011;1652;51.318;6.202;2023-08-20T06:56:16;7.30;;;6.63;;
3280;SDS011;1652;51.318;6.202;2023-08-20T06:58:43;6.77;;;5.93;;
3280;SDS011;1652;51.318;6.202;2023-08-20T07:01:10;8.57;;;6.60;;
3280;SDS011;1652;51.318;6.202;2023-08-20T07:03:39;6.77;;;6.07;;
3280;SDS011;1652;51.318;6.202;2023-08-20T07:06:07;5.10;;;4.60;;
3280;SDS011;1652;51.318;6.202;2023-08-20T07:08:35;10.90;;;6.07;;
3280;SDS011;1652;51.318;6.202;2023-08-20T07:11:05;7.87;;;5.80;;
3280;SDS011;1652;51.318;6.202;2023-08-20T07:13:32;5.90;;;5.40;;
3280;SDS011;1652;51.318;6.202;2023-08-20T07:15:59;5.13;;;4.73;;
3280;SDS011;1652;51.318;6.202;2023-08-20T07:18:26;5.43;;;4.93;;
3280;SDS011;1652;51.318;6.202;2023-08-20T07:20:54;5.88;;;4.50;;
3280;SDS011;1652;51.318;6.202;2023-08-20T07:23:21;6.40;;;4.77;;
3280;SDS011;1652;51.318;6.202;2023-08-20T07:25:49;10.23;;;4.50;;
3280;SDS011;1652;51.318;6.202;2023-08-20T07:28:18;7.57;;;5.30;;
3280;SDS011;1652;51.318;6.202;2023-08-20T07:31:08;5.77;;;4.90;;
3280;SDS011;1652;51.318;6.202;2023-08-20T07:33:35;9.73;;;5.47;;
3280;SDS011;1652;51.318;6.202;2023-08-20T07:36:02;10.15;;;5.10;;
3280;SDS011;1652;51.318;6.202;2023-08-20T07:38:29;6.20;;;5.60;;
3280;SDS011;1652;51.318;6.202;2023-08-20T07:40:55;10.25;;;5.47;;
3280;SDS011;1652;51.318;6.202;2023-08-20T07:43:23;10.57;;;5.40;;
3280;SDS011;1652;51.318;6.202;2023-08-20T07:45:50;5.05;;;4.65;;
3280;SDS011;1652;51.318;6.202;2023-08-20T07:48:17;10.45;;;5.18;;
3280;SDS011;1652;51.318;6.202;2023-08-20T07:50:44;6.38;;;5.72;;
3280;SDS011;1652;51.318;6.202;2023-08-20T07:53:11;6.88;;;5.65;;
3280;SDS011;1652;51.318;6.202;2023-08-20T07:55:38;8.93;;;6.63;;
3280;SDS011;1652;51.318;6.202;2023-08-20T07:58:05;6.53;;;5.97;;
3280;SDS011;1652;51.318;6.202;2023-08-20T08:00:32;9.70;;;8.73;;
3280;SDS011;1652;51.318;6.202;2023-08-20T08:02:59;16.30;;;9.43;;
3280;SDS011;1652;51.318;6.202;2023-08-20T08:05:26;14.02;;;10.13;;
3280;SDS011;1652;51.318;6.202;2023-08-20T08:07:52;15.80;;;11.88;;
3280;SDS011;1652;51.318;6.202;2023-08-20T08:10:19;17.20;;;11.98;;
3280;SDS011;1652;51.318;6.202;2023-08-20T08:12:46;18.52;;;10.73;;
3280;SDS011;1652;51.318;6.202;2023-08-20T08:15:13;13.53;;;12.10;;
3280;SDS011;1652;51.318;6.202;2023-08-20T08:17:41;17.90;;;12.47;;
3280;SDS011;1652;51.318;6.202;2023-08-20T08:20:08;22.17;;;14.30;;
3280;SDS011;1652;51.318;6.202;2023-08-20T08:22:35;17.30;;;14.00;;
3280;SDS011;1652;51.318;6.202;2023-08-20T08:25:02;17.30;;;14.80;;
3280;SDS011;1652;51.318;6.202;2023-08-20T08:27:29;19.70;;;13.30;;
3280;SDS011;1652;51.318;6.202;2023-08-20T08:29:57;20.27;;;18.20;;
3280;SDS011;1652;51.318;6.202;2023-08-20T08:32:24;26.67;;;19.40;;
3280;SDS011;1652;51.318;6.202;2023-08-20T08:34:50;21.10;;;18.97;;
3280;SDS011;1652;51.318;6.202;2023-08-20T08:37:17;19.03;;;14.30;;
3280;SDS011;1652;51.318;6.202;2023-08-20T08:39:44;14.73;;;13.10;;
3280;SDS011;1652;51.318;6.202;2023-08-20T08:42:11;14.37;;;12.43;;
3280;SDS011;1652;51.318;6.202;2023-08-20T08:44:39;12.87;;;10.33;;
3280;SDS011;1652;51.318;6.202;2023-08-20T08:47:06;16.03;;;10.53;;
3280;SDS011;1652;51.318;6.202;2023-08-20T08:49:34;15.40;;;11.33;;
3280;SDS011;1652;51.318;6.202;2023-08-20T08:52:01;10.70;;;9.80;;
3280;SDS011;1652;51.318;6.202;2023-08-20T08:54:29;11.60;;;9.67;;
3280;SDS011;1652;51.318;6.202;2023-08-20T08:56:58;11.77;;;9.87;;
3280;SDS011;1652;51.318;6.202;2023-08-20T08:59:25;11.10;;;9.97;;
3280;SDS011;1652;51.318;6.202;2023-08-20T09:01:52;12.03;;;10.87;;
3280;SDS011;1652;51.318;6.202;2023-08-20T09:04:20;18.33;;;12.43;;
3280;SDS011;1652;51.318;6.202;2023-08-20T09:06:51;14.53;;;11.80;;
3280;SDS011;1652;51.318;6.202;2023-08-20T09:09:19;18.10;;;11.43;;
3280;SDS011;1652;51.318;6.202;2023-08-20T09:11:47;16.37;;;11.77;;
3280;SDS011;1652;51.318;6.202;2023-08-20T09:14:27;13.93;;;11.67;;
3280;SDS011;1652;51.318;6.202;2023-08-20T09:16:57;12.37;;;11.27;;
3280;SDS011;1652;51.318;6.202;2023-08-20T09:19:24;12.23;;;10.93;;
3280;SDS011;1652;51.318;6.202;2023-08-20T09:21:59;20.00;;;12.23;;
3280;SDS011;1652;51.318;6.202;2023-08-20T09:24:26;25.30;;;21.90;;
3280;SDS011;1652;51.318;6.202;2023-08-20T09:26:59;13.93;;;12.60;;
3280;SDS011;1652;51.318;6.202;2023-08-20T09:29:26;16.77;;;15.03;;
3280;SDS011;1652;51.318;6.202;2023-08-20T09:31:59;13.63;;;11.40;;
3280;SDS011;1652;51.318;6.202;2023-08-20T09:34:36;11.70;;;10.50;;
3280;SDS011;1652;51.318;6.202;2023-08-20T09:37:05;15.50;;;11.27;;
3280;SDS011;1652;51.318;6.202;2023-08-20T09:39:38;16.00;;;11.13;;
3280;SDS011;1652;51.318;6.202;2023-08-20T09:42:06;10.77;;;9.60;;
3280;SDS011;1652;51.318;6.202;2023-08-20T09:44:34;21.57;;;16.97;;
3280;SDS011;1652;51.318;6.202;2023-08-20T09:47:03;10.43;;;9.33;;
3280;SDS011;1652;51.318;6.202;2023-08-20T09:49:33;11.67;;;10.47;;
3280;SDS011;1652;51.318;6.202;2023-08-20T09:52:04;12.50;;;9.97;;
3280;SDS011;1652;51.318;6.202;2023-08-20T09:57:38;13.23;;;8.57;;
3280;SDS011;1652;51.318;6.202;2023-08-20T10:00:11;9.40;;;7.80;;
3280;SDS011;1652;51.318;6.202;2023-08-20T10:02:40;9.77;;;8.80;;
3280;SDS011;1652;51.318;6.202;2023-08-20T10:05:08;7.47;;;6.70;;
3280;SDS011;1652;51.318;6.202;2023-08-20T10:07:37;10.37;;;6.67;;
3280;SDS011;1652;51.318;6.202;2023-08-20T10:10:05;9.40;;;7.20;;
3280;SDS011;1652;51.318;6.202;2023-08-20T10:12:40;6.30;;;5.90;;
3280;SDS011;1652;51.318;6.202;2023-08-20T10:15:12;15.43;;;9.07;;
3280;SDS011;1652;51.318;6.202;2023-08-20T10:17:43;12.20;;;7.87;;
3280;SDS011;1652;51.318;6.202;2023-08-20T10:20:13;14.47;;;8.50;;
3280;SDS011;1652;51.318;6.202;2023-08-20T10:22:43;10.67;;;9.77;;
3280;SDS011;1652;51.318;6.202;2023-08-20T10:25:31;13.93;;;9.13;;
3280;SDS011;1652;51.318;6.202;2023-08-20T10:28:13;8.37;;;7.57;;
3280;SDS011;1652;51.318;6.202;2023-08-20T10:33:34;8.90;;;8.30;;
3280;SDS011;1652;51.318;6.202;2023-08-20T10:36:23;11.37;;;7.87;;
3280;SDS011;1652;51.318;6.202;2023-08-20T10:38:58;20.57;;;11.37;;
3280;SDS011;1652;51.318;6.202;2023-08-20T10:41:31;7.60;;;6.97;;
3280;SDS011;1652;51.318;6.202;2023-08-20T10:44:00;8.50;;;7.50;;
3280;SDS011;1652;51.318;6.202;2023-08-20T10:46:27;9.57;;;7.70;;
3280;SDS011;1652;51.318;6.202;2023-08-20T10:48:58;11.00;;;7.37;;
3280;SDS011;1652;51.318;6.202;2023-08-20T10:51:28;12.87;;;8.60;;
3280;SDS011;1652;51.318;6.202;2023-08-20T10:56:43;7.73;;;7.03;;
3280;SDS011;1652;51.318;6.202;2023-08-20T10:59:47;5.50;;;4.70;;
3280;SDS011;1652;51.318;6.202;2023-08-20T11:02:07;5.23;;;4.70;;
3280;SDS011;1652;51.318;6.202;2023-08-20T11:04:40;8.40;;;7.20;;
3280;SDS011;1652;51.318;6.202;2023-08-20T11:07:07;10.20;;;5.97;;
3280;SDS011;1652;51.318;6.202;2023-08-20T11:09:34;6.03;;;5.43;;
3280;SDS011;1652;51.318;6.202;2023-08-20T11:12:01;7.30;;;4.73;;
3280;SDS011;1652;51.318;6.202;2023-08-20T11:14:29;6.40;;;4.70;;
3280;SDS011;1652;51.318;6.202;2023-08-20T11:16:56;5.27;;;4.77;;
3280;SDS011;1652;51.318;6.202;2023-08-20T11:19:23;5.37;;;4.87;;
3280;SDS011;1652;51.318;6.202;2023-08-20T11:21:50;8.90;;;4.77;;
3280;SDS011;1652;51.318;6.202;2023-08-20T11:24:20;4.23;;;3.83;;
3280;SDS011;1652;51.318;6.202;2023-08-20T11:26:48;8.83;;;4.37;;
3280;SDS011;1652;51.318;6.202;2023-08-20T11:29:15;18.30;;;14.30;;
3280;SDS011;1652;51.318;6.202;2023-08-20T11:31:49;13.80;;;8.70;;
3280;SDS011;1652;51.318;6.202;2023-08-20T11:34:18;7.73;;;6.70;;
3280;SDS011;1652;51.318;6.202;2023-08-20T11:36:45;5.37;;;4.97;;
3280;SDS011;1652;51.318;6.202;2023-08-20T11:39:12;6.10;;;4.90;;
3280;SDS011;1652;51.318;6.202;2023-08-20T11:41:39;6.40;;;4.63;;
3280;SDS011;1652;51.318;6.202;2023-08-20T11:44:10;10.00;;;3.20;;
3280;SDS011;1652;51.318;6.202;2023-08-20T11:46:43;5.83;;;4.23;;
3280;SDS011;1652;51.318;6.202;2023-08-20T11:49:11;3.97;;;2.50;;
3280;SDS011;1652;51.318;6.202;2023-08-20T11:51:40;3.23;;;3.00;;
3280;SDS011;1652;51.318;6.202;2023-08-20T11:54:15;6.03;;;3.20;;
3280;SDS011;1652;51.318;6.202;2023-08-20T11:56:44;3.20;;;2.90;;
3280;SDS011;1652;51.318;6.202;2023-08-20T11:59:13;5.07;;;4.57;;
3280;SDS011;1652;51.318;6.202;2023-08-20T12:01:40;2.63;;;2.37;;
3280;SDS011;1652;51.318;6.202;2023-08-20T12:04:08;6.80;;;2.80;;
3280;SDS011;1652;51.318;6.202;2023-08-20T12:06:37;4.87;;;4.30;;
3280;SDS011;1652;51.318;6.202;2023-08-20T12:09:20;3.83;;;3.50;;
3280;SDS011;1652;51.318;6.202;2023-08-20T12:11:48;12.97;;;11.13;;
3280;SDS011;1652;51.318;6.202;2023-08-20T12:14:18;15.80;;;11.83;;
3280;SDS011;1652;51.318;6.202;2023-08-20T12:16:46;2.07;;;1.87;;
3280;SDS011;1652;51.318;6.202;2023-08-20T12:19:13;3.97;;;2.40;;
3280;SDS011;1652;51.318;6.202;2023-08-20T12:21:43;7.20;;;6.50;;
3280;SDS011;1652;51.318;6.202;2023-08-20T12:24:10;3.47;;;3.27;;
3280;SDS011;1652;51.318;6.202;2023-08-20T12:26:38;3.00;;;2.80;;
3280;SDS011;1652;51.318;6.202;2023-08-20T12:29:06;21.27;;;18.57;;
3280;SDS011;1652;51.318;6.202;2023-08-20T12:31:33;9.40;;;6.10;;
3280;SDS011;1652;51.318;6.202;2023-08-20T12:34:01;2.47;;;2.10;;
3280;SDS011;1652;51.318;6.202;2023-08-20T12:36:28;9.83;;;2.60;;
3280;SDS011;1652;51.318;6.202;2023-08-20T12:38:56;5.50;;;2.27;;
3280;SDS011;1652;51.318;6.202;2023-08-20T12:41:23;4.20;;;1.50;;
3280;SDS011;1652;51.318;6.202;2023-08-20T12:43:50;2.80;;;2.07;;
3280;SDS011;1652;51.318;6.202;2023-08-20T12:46:17;3.10;;;2.60;;
3280;SDS011;1652;51.318;6.202;2023-08-20T12:48:44;2.33;;;2.10;;
3280;SDS011;1652;51.318;6.202;2023-08-20T12:51:11;2.17;;;2.00;;
3280;SDS011;1652;51.318;6.202;2023-08-20T12:53:43;2.70;;;2.47;;
3280;SDS011;1652;51.318;6.202;2023-08-20T12:56:10;2.53;;;2.27;;
3280;SDS011;1652;51.318;6.202;2023-08-20T12:58:38;43.90;;;32.33;;
3280;SDS011;1652;51.318;6.202;2023-08-20T13:01:05;2.70;;;2.50;;
3280;SDS011;1652;51.318;6.202;2023-08-20T13:03:32;4.20;;;3.27;;
3280;SDS011;1652;51.318;6.202;2023-08-20T13:05:59;4.33;;;2.10;;
3280;SDS011;1652;51.318;6.202;2023-08-20T13:08:27;4.60;;;2.00;;
3280;SDS011;1652;51.318;6.202;2023-08-20T13:10:55;2.83;;;2.10;;
3280;SDS011;1652;51.318;6.202;2023-08-20T13:13:24;5.50;;;3.47;;
3280;SDS011;1652;51.318;6.202;2023-08-20T13:15:51;4.27;;;1.90;;
3280;SDS011;1652;51.318;6.202;2023-08-20T13:18:19;4.23;;;2.93;;
3280;SDS011;1652;51.318;6.202;2023-08-20T13:20:54;3.43;;;2.53;;
3280;SDS011;1652;51.318;6.202;2023-08-20T13:23:21;6.47;;;2.20;;
3280;SDS011;1652;51.318;6.202;2023-08-20T13:25:48;1.73;;;1.60;;
3280;SDS011;1652;51.318;6.202;2023-08-20T13:28:15;2.40;;;2.20;;
3280;SDS011;1652;51.318;6.202;2023-08-20T13:30:42;3.00;;;2.53;;
3280;SDS011;1652;51.318;6.202;2023-08-20T13:33:09;5.20;;;3.20;;
3280;SDS011;1652;51.318;6.202;2023-08-20T13:35:36;1.73;;;1.63;;
3280;SDS011;1652;51.318;6.202;2023-08-20T13:38:03;5.10;;;2.20;;
3280;SDS011;1652;51.318;6.202;2023-08-20T13:40:31;4.90;;;3.03;;
3280;SDS011;1652;51.318;6.202;2023-08-20T13:42:57;4.80;;;2.73;;
3280;SDS011;1652;51.318;6.202;2023-08-20T13:45:24;3.13;;;1.73;;
3280;SDS011;1652;51.318;6.202;2023-08-20T13:47:52;2.97;;;2.70;;
3280;SDS011;1652;51.318;6.202;2023-08-20T13:50:18;3.40;;;2.00;;
3280;SDS011;1652;51.318;6.202;2023-08-20T13:52:45;4.83;;;2.10;;
3280;SDS011;1652;51.318;6.202;2023-08-20T13:55:12;3.50;;;2.30;;
3280;SDS011;1652;51.318;6.202;2023-08-20T13:57:39;2.60;;;1.67;;
3280;SDS011;1652;51.318;6.202;2023-08-20T14:00:06;3.80;;;2.17;;
3280;SDS011;1652;51.318;6.202;2023-08-20T14:02:36;2.50;;;1.60;;
3280;SDS011;1652;51.318;6.202;2023-08-20T14:05:03;3.33;;;1.73;;
3280;SDS011;1652;51.318;6.202;2023-08-20T14:07:31;4.00;;;1.83;;
3280;SDS011;1652;51.318;6.202;2023-08-20T14:09:59;3.17;;;2.10;;
3280;SDS011;1652;51.318;6.202;2023-08-20T14:12:27;1.60;;;1.50;;
3280;SDS011;1652;51.318;6.202;2023-08-20T14:14:54;6.97;;;5.97;;
3280;SDS011;1652;51.318;6.202;2023-08-20T14:17:21;10.97;;;9.77;;
3280;SDS011;1652;51.318;6.202;2023-08-20T14:19:48;25.70;;;22.30;;
3280;SDS011;1652;51.318;6.202;2023-08-20T14:22:15;6.93;;;6.33;;
3280;SDS011;1652;51.318;6.202;2023-08-20T14:24:42;1.87;;;1.67;;
3280;SDS011;1652;51.318;6.202;2023-08-20T14:27:09;2.43;;;2.23;;
3280;SDS011;1652;51.318;6.202;2023-08-20T14:29:36;3.00;;;1.73;;
3280;SDS011;1652;51.318;6.202;2023-08-20T14:32:03;4.93;;;1.93;;
3280;SDS011;1652;51.318;6.202;2023-08-20T14:34:30;7.13;;;3.80;;
3280;SDS011;1652;51.318;6.202;2023-08-20T14:36:57;2.27;;;1.63;;
3280;SDS011;1652;51.318;6.202;2023-08-20T14:39:24;5.63;;;3.33;;
3280;SDS011;1652;51.318;6.202;2023-08-20T14:41:51;13.53;;;7.00;;
3280;SDS011;1652;51.318;6.202;2023-08-20T14:44:17;3.30;;;2.60;;
3280;SDS011;1652;51.318;6.202;2023-08-20T14:46:44;17.63;;;15.73;;
3280;SDS011;1652;51.318;6.202;2023-08-20T14:49:11;4.90;;;3.17;;
3280;SDS011;1652;51.318;6.202;2023-08-20T14:51:38;23.80;;;17.40;;
3280;SDS011;1652;51.318;6.202;2023-08-20T14:54:05;4.60;;;1.83;;
3280;SDS011;1652;51.318;6.202;2023-08-20T14:56:32;28.70;;;25.17;;
3280;SDS011;1652;51.318;6.202;2023-08-20T14:58:59;10.23;;;9.33;;
3280;SDS011;1652;51.318;6.202;2023-08-20T15:01:26;2.77;;;2.57;;
3280;SDS011;1652;51.318;6.202;2023-08-20T15:03:53;3.33;;;2.17;;
3280;SDS011;1652;51.318;6.202;2023-08-20T15:06:19;10.10;;;9.20;;
3280;SDS011;1652;51.318;6.202;2023-08-20T15:08:48;5.50;;;5.00;;
3280;SDS011;1652;51.318;6.202;2023-08-20T15:11:15;7.93;;;7.40;;
3280;SDS011;1652;51.318;6.202;2023-08-20T15:13:42;2.93;;;2.83;;
3280;SDS011;1652;51.318;6.202;2023-08-20T15:16:09;7.23;;;6.53;;
3280;SDS011;1652;51.318;6.202;2023-08-20T15:18:36;4.73;;;3.30;;
3280;SDS011;1652;51.318;6.202;2023-08-20T15:21:03;8.33;;;7.17;;
3280;SDS011;1652;51.318;6.202;2023-08-20T15:23:29;5.53;;;4.93;;
3280;SDS011;1652;51.318;6.202;2023-08-20T15:25:58;3.70;;;3.27;;